DCDLH EDDH-HAM
Flight info
| Callsign | DCDLH |
|---|---|
| Flight time | N/A |
| Altitude | |
| Route | |
| Aircraft | JU52 |
Departure
| Time | 2026-05-07 22:43 |
|---|---|
| Airport | Hamburg Helmut Schmidt Airport (EDDH) |
Arrival
| Time | N/A |
|---|---|
| Airport | HAM |
| Time | Latitude | Longitude | Altitude | Speed | Heading |
|---|---|---|---|---|---|
| 2026-05-07 22:20 | 53.62476 | 10.00453 | 49 ft | 0 kts | 246° |
| 2026-05-07 22:21 | 53.62475 | 10.00452 | 49 ft | 0 kts | 250° |
| 2026-05-07 22:21 | 53.62474 | 10.00448 | 49 ft | 3 kts | 265° |
| 2026-05-07 22:21 | 53.62488 | 10.00429 | 49 ft | 9 kts | 41° |
| 2026-05-07 22:22 | 53.62542 | 10.00459 | 49 ft | 9 kts | 332° |
| 2026-05-07 22:22 | 53.62599 | 10.00369 | 49 ft | 15 kts | 274° |
| 2026-05-07 22:22 | 53.62666 | 10.00214 | 49 ft | 21 kts | 334° |
| 2026-05-07 22:22 | 53.62807 | 10.00093 | 49 ft | 23 kts | 313° |
| 2026-05-07 22:23 | 53.62797 | 9.99955 | 49 ft | 15 kts | 213° |
| 2026-05-07 22:23 | 53.62683 | 9.99851 | 47 ft | 21 kts | 207° |
| 2026-05-07 22:23 | 53.62620 | 9.99644 | 49 ft | 22 kts | 260° |
| 2026-05-07 22:23 | 53.62590 | 9.99372 | 49 ft | 25 kts | 260° |
| 2026-05-07 22:24 | 53.62560 | 9.99068 | 49 ft | 27 kts | 263° |
| 2026-05-07 22:24 | 53.62641 | 9.98928 | 49 ft | 16 kts | 336° |
| 2026-05-07 22:24 | 53.62728 | 9.98858 | 49 ft | 12 kts | 335° |
| 2026-05-07 22:24 | 53.62765 | 9.98874 | 49 ft | 0 kts | 60° |
| 2026-05-07 22:35 | 53.62766 | 9.98879 | 49 ft | 1 kts | 27° |
| 2026-05-07 22:36 | 53.62772 | 9.98879 | 49 ft | 2 kts | 277° |
| 2026-05-07 22:36 | 53.62770 | 9.98825 | 49 ft | 6 kts | 312° |
| 2026-05-07 22:36 | 53.62816 | 9.98812 | 49 ft | 9 kts | 44° |
| 2026-05-07 22:36 | 53.62864 | 9.98894 | 49 ft | 11 kts | 46° |
| 2026-05-07 22:37 | 53.62919 | 9.99000 | 49 ft | 13 kts | 51° |
| 2026-05-07 22:37 | 53.62980 | 9.99123 | 49 ft | 14 kts | 48° |
| 2026-05-07 22:37 | 53.63049 | 9.99253 | 49 ft | 15 kts | 44° |
| 2026-05-07 22:37 | 53.63133 | 9.99308 | 49 ft | 2 kts | 13° |
| 2026-05-07 22:42 | 53.63157 | 9.99317 | 49 ft | 8 kts | 13° |
| 2026-05-07 22:42 | 53.63239 | 9.99348 | 50 ft | 16 kts | 9° |
| 2026-05-07 22:42 | 53.63367 | 9.99311 | 49 ft | 24 kts | 332° |
| 2026-05-07 22:43 | 53.63620 | 9.99080 | 56 ft | 62 kts | 334° |
| 2026-05-07 22:43 | 53.64076 | 9.98686 | 198 ft | 81 kts | 338° |
| 2026-05-07 22:43 | 53.64558 | 9.98254 | 493 ft | 77 kts | 335° |
| 2026-05-07 22:43 | 53.65039 | 9.97815 | 793 ft | 78 kts | 338° |
| 2026-05-07 22:44 | 53.65552 | 9.97333 | 1132 ft | 89 kts | 336° |
| 2026-05-07 22:44 | 53.66080 | 9.96758 | 1414 ft | 98 kts | 330° |
| 2026-05-07 22:44 | 53.66584 | 9.95869 | 1560 ft | 108 kts | 312° |
| 2026-05-07 22:44 | 53.67022 | 9.94752 | 1608 ft | 117 kts | 304° |
| 2026-05-07 22:45 | 53.67272 | 9.93952 | 1673 ft | 115 kts | 299° |
| 2026-05-07 22:45 | 53.67563 | 9.92696 | 1756 ft | 115 kts | 290° |
| 2026-05-07 22:45 | 53.67629 | 9.91334 | 1746 ft | 116 kts | 252° |
| 2026-05-07 22:45 | 53.67175 | 9.90272 | 1771 ft | 116 kts | 211° |
| 2026-05-07 22:46 | 53.66440 | 9.89719 | 1704 ft | 113 kts | 185° |
| 2026-05-07 22:46 | 53.65706 | 9.89634 | 1781 ft | 102 kts | 168° |
| 2026-05-07 22:46 | 53.65026 | 9.89963 | 1746 ft | 103 kts | 146° |
| 2026-05-07 22:46 | 53.64505 | 9.90726 | 1638 ft | 102 kts | 115° |
| 2026-05-07 22:47 | 53.64314 | 9.91865 | 1365 ft | 99 kts | 98° |
| 2026-05-07 22:47 | 53.64196 | 9.92957 | 1231 ft | 92 kts | 99° |
| 2026-05-07 22:47 | 53.64066 | 9.94002 | 1037 ft | 90 kts | 99° |
| 2026-05-07 22:47 | 53.63935 | 9.95075 | 898 ft | 98 kts | 99° |
| 2026-05-07 22:48 | 53.63787 | 9.96185 | 965 ft | 95 kts | 102° |
| 2026-05-07 22:48 | 53.63596 | 9.97240 | 1107 ft | 94 kts | 103° |
| 2026-05-07 22:48 | 53.63447 | 9.98305 | 1203 ft | 93 kts | 98° |
| 2026-05-07 22:48 | 53.63356 | 9.99385 | 1274 ft | 93 kts | 93° |
| 2026-05-07 22:49 | 53.63329 | 10.00455 | 1380 ft | 89 kts | 89° |
| 2026-05-07 22:49 | 53.63347 | 10.01499 | 1454 ft | 90 kts | 86° |
| 2026-05-07 22:49 | 53.63384 | 10.02547 | 1499 ft | 90 kts | 88° |
| 2026-05-07 22:49 | 53.63346 | 10.03600 | 1552 ft | 91 kts | 96° |
| 2026-05-07 22:50 | 53.63220 | 10.04652 | 1568 ft | 92 kts | 101° |
| 2026-05-07 22:50 | 53.63034 | 10.05694 | 1610 ft | 93 kts | 106° |
| 2026-05-07 22:50 | 53.62793 | 10.06706 | 1642 ft | 93 kts | 110° |
| 2026-05-07 22:50 | 53.62530 | 10.07684 | 1644 ft | 93 kts | 111° |
| 2026-05-07 22:51 | 53.62185 | 10.08616 | 1565 ft | 101 kts | 131° |
| 2026-05-07 22:51 | 53.61537 | 10.09229 | 1449 ft | 109 kts | 157° |
| 2026-05-07 22:51 | 53.60805 | 10.09322 | 1487 ft | 107 kts | 175° |
| 2026-05-07 22:51 | 53.60049 | 10.09225 | 1466 ft | 110 kts | 178° |
| 2026-05-07 22:52 | 53.59294 | 10.09124 | 1481 ft | 107 kts | 176° |
| 2026-05-07 22:52 | 53.58549 | 10.09030 | 1493 ft | 108 kts | 176° |
| 2026-05-07 22:52 | 53.57801 | 10.08941 | 1482 ft | 108 kts | 176° |
| 2026-05-07 22:52 | 53.57049 | 10.08875 | 1487 ft | 108 kts | 175° |
| 2026-05-07 22:53 | 53.56295 | 10.08816 | 1482 ft | 108 kts | 176° |
| 2026-05-07 22:53 | 53.55547 | 10.08703 | 1493 ft | 109 kts | 182° |
| 2026-05-07 22:53 | 53.54797 | 10.08417 | 1484 ft | 112 kts | 189° |
| 2026-05-07 22:53 | 53.54064 | 10.07949 | 1488 ft | 114 kts | 200° |
| 2026-05-07 22:54 | 53.53382 | 10.07263 | 1502 ft | 115 kts | 211° |
| 2026-05-07 22:54 | 53.52765 | 10.06389 | 1493 ft | 117 kts | 217° |
| 2026-05-07 22:54 | 53.52139 | 10.05504 | 1474 ft | 118 kts | 216° |
| 2026-05-07 22:54 | 53.51540 | 10.04568 | 1496 ft | 117 kts | 220° |
| 2026-05-07 22:55 | 53.50979 | 10.03576 | 1518 ft | 117 kts | 224° |
| 2026-05-07 22:55 | 53.50448 | 10.02531 | 1512 ft | 119 kts | 229° |
| 2026-05-07 22:55 | 53.50004 | 10.01358 | 1458 ft | 118 kts | 240° |
| 2026-05-07 22:55 | 53.49709 | 10.00069 | 1239 ft | 121 kts | 256° |
| 2026-05-07 22:56 | 53.49605 | 9.98688 | 1038 ft | 117 kts | 272° |
| 2026-05-07 22:56 | 53.49718 | 9.97390 | 927 ft | 109 kts | 288° |
| 2026-05-07 22:56 | 53.49992 | 9.96229 | 777 ft | 106 kts | 301° |
| 2026-05-07 22:56 | 53.50400 | 9.95275 | 710 ft | 97 kts | 322° |
| 2026-05-07 22:57 | 53.50936 | 9.94593 | 667 ft | 95 kts | 332° |
| 2026-05-07 22:57 | 53.51530 | 9.94093 | 570 ft | 100 kts | 343° |
| 2026-05-07 22:57 | 53.52191 | 9.93820 | 577 ft | 93 kts | 359° |
| 2026-05-07 22:57 | 53.52856 | 9.93869 | 558 ft | 97 kts | 13° |
| 2026-05-07 22:58 | 53.53478 | 9.94193 | 671 ft | 90 kts | 28° |
| 2026-05-07 22:58 | 53.53994 | 9.94783 | 652 ft | 93 kts | 46° |
| 2026-05-07 22:58 | 53.54324 | 9.95632 | 706 ft | 86 kts | 75° |
| 2026-05-07 22:58 | 53.54269 | 9.96659 | 677 ft | 89 kts | 107° |
| 2026-05-07 22:59 | 53.53986 | 9.97611 | 643 ft | 91 kts | 116° |
| 2026-05-07 22:59 | 53.53700 | 9.98539 | 735 ft | 86 kts | 115° |
| 2026-05-07 22:59 | 53.53448 | 9.99451 | 721 ft | 87 kts | 98° |
| 2026-05-07 22:59 | 53.53630 | 10.00357 | 745 ft | 85 kts | 42° |
| 2026-05-07 23:00 | 53.54225 | 10.00573 | 678 ft | 95 kts | 356° |
| 2026-05-07 23:00 | 53.54845 | 10.00252 | 762 ft | 93 kts | 341° |
| 2026-05-07 23:00 | 53.55436 | 9.99713 | 805 ft | 100 kts | 332° |
| 2026-05-07 23:00 | 53.55994 | 9.99027 | 948 ft | 97 kts | 325° |
| 2026-05-07 23:01 | 53.56512 | 9.98284 | 994 ft | 97 kts | 324° |
| 2026-05-07 23:01 | 53.56625 | 9.97193 | 1040 ft | 103 kts | 240° |
| 2026-05-07 23:01 | 53.56028 | 9.96704 | 970 ft | 100 kts | 173° |
| 2026-05-07 23:01 | 53.55340 | 9.97014 | 829 ft | 103 kts | 156° |
| 2026-05-07 23:02 | 53.54708 | 9.97589 | 633 ft | 104 kts | 126° |
| 2026-05-07 23:02 | 53.54820 | 9.98481 | 829 ft | 76 kts | 30° |
| 2026-05-07 23:02 | 53.55294 | 9.98882 | 949 ft | 80 kts | 30° |
| 2026-05-07 23:02 | 53.55794 | 9.99327 | 1163 ft | 83 kts | 32° |
| 2026-05-07 23:03 | 53.56313 | 9.99754 | 1367 ft | 83 kts | 30° |
| 2026-05-07 23:03 | 53.56763 | 10.00276 | 1528 ft | 77 kts | 65° |
| 2026-05-07 23:03 | 53.56625 | 10.01103 | 1590 ft | 92 kts | 144° |
| 2026-05-07 23:03 | 53.55971 | 10.00791 | 1559 ft | 121 kts | 227° |
| 2026-05-07 23:04 | 53.55693 | 9.99426 | 1549 ft | 120 kts | 259° |
| 2026-05-07 23:04 | 53.55573 | 9.98115 | 1671 ft | 116 kts | 256° |
| 2026-05-07 23:04 | 53.55280 | 9.96829 | 1685 ft | 118 kts | 239° |
| 2026-05-07 23:04 | 53.54927 | 9.95596 | 1733 ft | 116 kts | 246° |
| 2026-05-07 23:05 | 53.54648 | 9.94319 | 1764 ft | 117 kts | 255° |
| 2026-05-07 23:05 | 53.54513 | 9.92979 | 1808 ft | 115 kts | 266° |
| 2026-05-07 23:05 | 53.54539 | 9.91654 | 1791 ft | 115 kts | 280° |
| 2026-05-07 23:05 | 53.54649 | 9.90314 | 1797 ft | 118 kts | 279° |
| 2026-05-07 23:06 | 53.54734 | 9.88983 | 1831 ft | 111 kts | 279° |
| 2026-05-07 23:06 | 53.54828 | 9.87675 | 1753 ft | 113 kts | 280° |
| 2026-05-07 23:06 | 53.54945 | 9.86346 | 1675 ft | 113 kts | 281° |
| 2026-05-07 23:06 | 53.55059 | 9.85061 | 1656 ft | 110 kts | 281° |
| 2026-05-07 23:07 | 53.55194 | 9.83794 | 1569 ft | 111 kts | 284° |
| 2026-05-07 23:07 | 53.55345 | 9.82517 | 1462 ft | 113 kts | 284° |
| 2026-05-07 23:07 | 53.55510 | 9.81260 | 1457 ft | 109 kts | 287° |
| 2026-05-07 23:07 | 53.55711 | 9.80040 | 1428 ft | 108 kts | 289° |
| 2026-05-07 23:08 | 53.55904 | 9.78821 | 1388 ft | 107 kts | 286° |
| 2026-05-07 23:08 | 53.55996 | 9.77610 | 1398 ft | 103 kts | 270° |
| 2026-05-07 23:08 | 53.55800 | 9.76491 | 1437 ft | 100 kts | 232° |
| 2026-05-07 23:08 | 53.55343 | 9.75590 | 1408 ft | 102 kts | 218° |
| 2026-05-07 23:09 | 53.54711 | 9.75139 | 1385 ft | 100 kts | 177° |
| 2026-05-07 23:09 | 53.54015 | 9.75237 | 1352 ft | 98 kts | 160° |
| 2026-05-07 23:09 | 53.53423 | 9.75627 | 1400 ft | 91 kts | 135° |
| 2026-05-07 23:09 | 53.52940 | 9.76334 | 1394 ft | 90 kts | 131° |
| 2026-05-07 23:10 | 53.52524 | 9.77101 | 1433 ft | 86 kts | 120° |
| 2026-05-07 23:10 | 53.52200 | 9.77945 | 1425 ft | 87 kts | 113° |
| 2026-05-07 23:10 | 53.52070 | 9.78965 | 1311 ft | 90 kts | 88° |
| 2026-05-07 23:10 | 53.52084 | 9.80019 | 941 ft | 86 kts | 80° |
| 2026-05-07 23:11 | 53.52339 | 9.80917 | 571 ft | 88 kts | 54° |
| 2026-05-07 23:11 | 53.52707 | 9.81734 | 373 ft | 87 kts | 54° |
| 2026-05-07 23:11 | 53.53080 | 9.82522 | 294 ft | 84 kts | 53° |
| 2026-05-07 23:11 | 53.53426 | 9.83297 | 377 ft | 80 kts | 54° |
| 2026-05-07 23:12 | 53.53777 | 9.84014 | 542 ft | 78 kts | 51° |
| 2026-05-07 23:12 | 53.54124 | 9.84686 | 733 ft | 76 kts | 56° |
| 2026-05-07 23:12 | 53.54310 | 9.85526 | 867 ft | 78 kts | 85° |
| 2026-05-07 23:12 | 53.54148 | 9.86404 | 964 ft | 84 kts | 121° |
| 2026-05-07 23:13 | 53.53874 | 9.87293 | 819 ft | 90 kts | 119° |
| 2026-05-07 23:13 | 53.53610 | 9.88201 | 841 ft | 87 kts | 94° |
| 2026-05-07 23:13 | 53.53726 | 9.89153 | 1062 ft | 75 kts | 73° |
| 2026-05-07 23:13 | 53.53793 | 9.90042 | 1214 ft | 80 kts | 89° |
| 2026-05-07 23:14 | 53.53839 | 9.91014 | 1276 ft | 84 kts | 83° |
| 2026-05-07 23:14 | 53.53909 | 9.91989 | 1275 ft | 85 kts | 82° |
| 2026-05-07 23:14 | 53.53997 | 9.92971 | 1179 ft | 86 kts | 79° |
| 2026-05-07 23:14 | 53.54115 | 9.93978 | 917 ft | 89 kts | 78° |
| 2026-05-07 23:15 | 53.54201 | 9.95027 | 818 ft | 92 kts | 88° |
| 2026-05-07 23:15 | 53.54153 | 9.96103 | 804 ft | 89 kts | 97° |
| 2026-05-07 23:15 | 53.54087 | 9.97154 | 730 ft | 92 kts | 89° |
| 2026-05-07 23:15 | 53.54264 | 9.98129 | 824 ft | 89 kts | 54° |
| 2026-05-07 23:16 | 53.54754 | 9.98770 | 1045 ft | 85 kts | 37° |
| 2026-05-07 23:16 | 53.55214 | 9.99248 | 1361 ft | 75 kts | 38° |
| 2026-05-07 23:16 | 53.55686 | 9.99715 | 1336 ft | 85 kts | 34° |
| 2026-05-07 23:16 | 53.56229 | 10.00144 | 1388 ft | 85 kts | 30° |
| 2026-05-07 23:17 | 53.56779 | 10.00483 | 1433 ft | 89 kts | 20° |
| 2026-05-07 23:17 | 53.57431 | 10.00526 | 1427 ft | 95 kts | 359° |
| 2026-05-07 23:17 | 53.58044 | 10.00196 | 1536 ft | 92 kts | 347° |
| 2026-05-07 23:17 | 53.58677 | 9.99913 | 1530 ft | 95 kts | 0° |
| 2026-05-07 23:18 | 53.59300 | 10.00085 | 1446 ft | 88 kts | 29° |
| 2026-05-07 23:18 | 53.59886 | 10.00422 | 1186 ft | 91 kts | 23° |
| 2026-05-07 23:18 | 53.60512 | 10.00704 | 1003 ft | 96 kts | 18° |
| 2026-05-07 23:18 | 53.61212 | 10.00806 | 753 ft | 105 kts | 359° |
| 2026-05-07 23:19 | 53.61915 | 10.00457 | 534 ft | 106 kts | 341° |
| 2026-05-07 23:19 | 53.62522 | 9.99993 | 461 ft | 93 kts | 338° |
| 2026-05-07 23:19 | 53.63118 | 9.99554 | 223 ft | 93 kts | 334° |
| 2026-05-07 23:19 | 53.63665 | 9.99039 | 243 ft | 89 kts | 339° |
| 2026-05-07 23:20 | 53.64206 | 9.98922 | 454 ft | 80 kts | 19° |
| 2026-05-07 23:20 | 53.64660 | 9.99442 | 617 ft | 76 kts | 48° |
| 2026-05-07 23:20 | 53.64923 | 10.00156 | 824 ft | 74 kts | 74° |
| 2026-05-07 23:20 | 53.64854 | 10.01083 | 795 ft | 89 kts | 118° |
| 2026-05-07 23:21 | 53.64370 | 10.01663 | 924 ft | 91 kts | 162° |
| 2026-05-07 23:21 | 53.63719 | 10.01759 | 1028 ft | 90 kts | 171° |
| 2026-05-07 23:21 | 53.63075 | 10.01788 | 1031 ft | 99 kts | 178° |
| 2026-05-07 23:21 | 53.62379 | 10.01612 | 1194 ft | 101 kts | 190° |
| 2026-05-07 23:22 | 53.61750 | 10.01063 | 1187 ft | 106 kts | 214° |
| 2026-05-07 23:22 | 53.61248 | 10.00163 | 1116 ft | 105 kts | 229° |
| 2026-05-07 23:22 | 53.60809 | 9.99181 | 1074 ft | 105 kts | 230° |
| 2026-05-07 23:22 | 53.60369 | 9.98222 | 1048 ft | 102 kts | 230° |
| 2026-05-07 23:23 | 53.59953 | 9.97267 | 1005 ft | 98 kts | 231° |
| 2026-05-07 23:23 | 53.59745 | 9.96167 | 930 ft | 100 kts | 269° |
| 2026-05-07 23:23 | 53.59916 | 9.95040 | 858 ft | 94 kts | 309° |
| 2026-05-07 23:23 | 53.60473 | 9.94527 | 721 ft | 93 kts | 1° |
| 2026-05-07 23:24 | 53.61077 | 9.94846 | 558 ft | 95 kts | 38° |
| 2026-05-07 23:24 | 53.61525 | 9.95681 | 403 ft | 95 kts | 54° |
| 2026-05-07 23:24 | 53.61903 | 9.96510 | 325 ft | 86 kts | 51° |
| 2026-05-07 23:24 | 53.62269 | 9.97246 | 243 ft | 78 kts | 51° |
| 2026-05-07 23:25 | 53.62624 | 9.97955 | 192 ft | 85 kts | 50° |
| 2026-05-07 23:25 | 53.62994 | 9.98731 | 219 ft | 88 kts | 52° |
| 2026-05-07 23:25 | 53.63396 | 9.99531 | 241 ft | 90 kts | 50° |
| 2026-05-07 23:25 | 53.63818 | 9.99518 | 521 ft | 71 kts | 324° |
| 2026-05-07 23:26 | 53.64405 | 9.99313 | 563 ft | 94 kts | 6° |
| 2026-05-07 23:26 | 53.65021 | 9.99193 | 624 ft | 86 kts | 349° |
| 2026-05-07 23:26 | 53.65546 | 9.98762 | 620 ft | 92 kts | 314° |
| 2026-05-07 23:26 | 53.65543 | 9.97778 | 349 ft | 85 kts | 223° |
| 2026-05-07 23:27 | 53.64758 | 9.98160 | 55 ft | 41 kts | 161° |
| 2026-05-07 23:27 | 53.64521 | 9.98346 | 51 ft | 39 kts | 153° |
| 2026-05-07 23:27 | 53.64242 | 9.98580 | 52 ft | 52 kts | 153° |
| 2026-05-07 23:28 | 53.63871 | 9.98896 | 48 ft | 64 kts | 150° |
| 2026-05-07 23:28 | 53.63527 | 9.99193 | 50 ft | 46 kts | 149° |
| 2026-05-07 23:28 | 53.63269 | 9.99362 | 50 ft | 35 kts | 185° |
| 2026-05-07 23:28 | 53.63061 | 9.99271 | 49 ft | 28 kts | 214° |
| 2026-05-07 23:29 | 53.62943 | 9.99057 | 49 ft | 22 kts | 231° |
| 2026-05-07 23:29 | 53.62849 | 9.98869 | 49 ft | 19 kts | 227° |
| 2026-05-07 23:29 | 53.62768 | 9.98793 | 49 ft | 6 kts | 133° |
| 2026-05-07 23:29 | 53.62752 | 9.98828 | 49 ft | 4 kts | 116° |
| 2026-05-07 23:30 | 53.62751 | 9.98846 | 49 ft | 4 kts | 64° |
| 2026-05-07 23:30 | 53.62763 | 9.98883 | 49 ft | 0 kts | 61° |